createdAt,value
2023-01-04T00:00:22.811Z,40.93
2023-01-04T00:01:22.802Z,40.28
2023-01-04T00:02:22.910Z,40.28
2023-01-04T00:03:22.799Z,39.80
2023-01-04T00:04:22.742Z,40.93
2023-01-04T00:05:22.734Z,40.28
2023-01-04T00:06:22.732Z,39.80
2023-01-04T00:07:22.745Z,40.12
2023-01-04T00:08:22.709Z,39.80
2023-01-04T00:09:22.717Z,40.61
2023-01-04T00:10:22.695Z,39.16
2023-01-04T00:11:22.690Z,41.89
2023-01-04T00:12:22.706Z,41.89
2023-01-04T00:13:22.678Z,40.44
2023-01-04T00:14:22.667Z,39.80
2023-01-04T00:15:22.660Z,44.79
2023-01-04T00:16:22.744Z,39.96
2023-01-04T00:17:22.669Z,39.96
2023-01-04T00:18:23.633Z,39.96
2023-01-04T00:19:22.641Z,40.12
2023-01-04T00:20:22.620Z,39.16
2023-01-04T00:21:22.610Z,39.96
2023-01-04T00:22:22.631Z,39.64
2023-01-04T00:23:22.593Z,38.83
2023-01-04T00:24:22.596Z,37.54
2023-01-04T00:25:22.574Z,39.64
2023-01-04T00:26:22.566Z,40.61
2023-01-04T00:27:22.601Z,39.64
2023-01-04T00:28:22.552Z,38.99
2023-01-04T00:29:22.540Z,40.93
2023-01-04T00:30:23.540Z,39.80
2023-01-04T00:31:22.732Z,39.96
2023-01-04T00:32:22.564Z,39.96
2023-01-04T00:33:22.524Z,40.77
2023-01-04T00:34:22.527Z,38.99
2023-01-04T00:35:44.644Z,39.80
2023-01-04T00:36:24.500Z,39.96
2023-01-04T00:37:22.517Z,39.80
2023-01-04T00:38:22.485Z,38.51
2023-01-04T00:39:22.475Z,41.09
2023-01-04T00:40:22.504Z,40.93
2023-01-04T00:41:56.406Z,39.80
2023-01-04T00:42:24.478Z,38.67
2023-01-04T00:43:22.447Z,39.48
2023-01-04T00:44:22.435Z,38.99
2023-01-04T00:45:22.445Z,40.77
2023-01-04T00:46:22.450Z,39.80
2023-01-04T00:47:22.442Z,38.83
2023-01-04T00:48:22.405Z,38.99
2023-01-04T00:49:22.390Z,40.77
2023-01-04T00:50:22.388Z,39.48
2023-01-04T00:51:22.381Z,39.32
2023-01-04T00:52:22.406Z,38.83
2023-01-04T00:53:22.372Z,38.35
2023-01-04T00:54:22.365Z,39.32
2023-01-04T00:55:22.354Z,39.48
2023-01-04T00:56:22.338Z,39.96
2023-01-04T00:57:22.372Z,39.48
2023-01-04T00:58:22.369Z,39.80
2023-01-04T00:59:22.324Z,39.96
2023-01-04T01:00:22.313Z,41.41
2023-01-04T01:01:22.424Z,39.64
2023-01-04T01:02:22.450Z,40.12
2023-01-04T01:03:22.420Z,39.80
2023-01-04T01:04:22.459Z,38.51
2023-01-04T01:05:22.276Z,39.48
2023-01-04T01:06:22.268Z,38.99
2023-01-04T01:07:22.279Z,39.48
2023-01-04T01:08:22.248Z,39.32
2023-01-04T01:09:22.248Z,39.48
2023-01-04T01:10:22.240Z,39.48
2023-01-04T01:11:22.235Z,40.61
2023-01-04T01:12:22.252Z,39.96
2023-01-04T01:13:22.218Z,42.06
2023-01-04T01:14:22.216Z,40.44
2023-01-04T01:15:22.199Z,39.32
2023-01-04T01:16:44.424Z,39.32
2023-01-04T01:17:24.213Z,39.64
2023-01-04T01:18:22.177Z,39.64
2023-01-04T01:19:22.169Z,41.25
2023-01-04T01:20:22.151Z,39.96
2023-01-04T01:21:23.154Z,39.32
2023-01-04T01:22:22.176Z,39.80
2023-01-04T01:23:22.142Z,39.96
2023-01-04T01:24:22.146Z,39.48
2023-01-04T01:25:22.125Z,39.96
2023-01-04T01:26:22.136Z,39.96
2023-01-04T01:27:22.136Z,38.99
2023-01-04T01:28:22.105Z,39.64
2023-01-04T01:29:22.100Z,43.83
2023-01-04T01:30:22.103Z,41.57
2023-01-04T01:31:22.148Z,39.16
2023-01-04T01:32:22.107Z,39.32
2023-01-04T01:33:22.080Z,39.64
2023-01-04T01:34:22.057Z,39.16
2023-01-04T01:35:22.052Z,40.12
2023-01-04T01:36:22.043Z,40.93
2023-01-04T01:37:22.056Z,39.32
2023-01-04T01:38:22.019Z,39.32
2023-01-04T01:39:22.012Z,39.80
2023-01-04T01:40:22.016Z,39.64
2023-01-04T01:41:22.003Z,42.54
2023-01-04T01:42:22.018Z,39.64
2023-01-04T01:43:21.976Z,39.16
2023-01-04T01:44:21.979Z,41.25
2023-01-04T01:45:21.992Z,40.93
2023-01-04T01:46:21.976Z,38.99
2023-01-04T01:47:22.000Z,38.99
2023-01-04T01:48:21.946Z,39.64
2023-01-04T01:49:21.958Z,39.16
2023-01-04T01:50:21.932Z,39.80
2023-01-04T01:51:21.927Z,39.96
2023-01-04T01:52:21.948Z,39.64
2023-01-04T01:53:21.908Z,39.80
2023-01-04T01:54:21.903Z,38.83
2023-01-04T01:55:21.890Z,39.16
2023-01-04T01:56:21.906Z,39.96
2023-01-04T01:57:21.874Z,41.25
2023-01-04T01:58:21.898Z,40.28
2023-01-04T01:59:21.861Z,39.16
2023-01-04T02:00:21.860Z,39.80
2023-01-04T02:01:21.898Z,39.16
2023-01-04T02:02:22.082Z,39.32
2023-01-04T02:03:21.991Z,41.57
2023-01-04T02:04:21.816Z,39.96
2023-01-04T02:05:21.830Z,38.99
2023-01-04T02:06:21.798Z,39.32
2023-01-04T02:07:21.798Z,40.44
2023-01-04T02:08:21.824Z,38.99
2023-01-04T02:09:21.791Z,38.67
2023-01-04T02:10:21.775Z,38.83
2023-01-04T02:11:21.765Z,40.77
2023-01-04T02:12:21.768Z,39.16
2023-01-04T02:13:21.779Z,38.67
2023-01-04T02:14:21.743Z,39.32
2023-01-04T02:15:21.743Z,41.57
2023-01-04T02:16:21.769Z,41.25
2023-01-04T02:17:21.729Z,39.80
2023-01-04T02:18:21.738Z,39.16
2023-01-04T02:19:21.706Z,39.16
2023-01-04T02:20:21.702Z,42.54
2023-01-04T02:21:21.697Z,38.99
2023-01-04T02:22:21.685Z,38.83
2023-01-04T02:23:21.703Z,38.83
2023-01-04T02:24:21.677Z,38.83
2023-01-04T02:25:21.660Z,39.16
2023-01-04T02:26:21.660Z,39.32
2023-01-04T02:27:21.645Z,38.99
2023-01-04T02:28:21.661Z,39.48
2023-01-04T02:29:21.635Z,40.44
2023-01-04T02:30:21.616Z,39.64
2023-01-04T02:31:21.635Z,39.80
2023-01-04T02:32:21.615Z,41.25
2023-01-04T02:33:21.619Z,39.80
2023-01-04T02:34:21.590Z,40.12
2023-01-04T02:35:21.589Z,39.96
2023-01-04T02:36:21.595Z,39.32
2023-01-04T02:37:21.562Z,39.80
2023-01-04T02:38:21.584Z,40.12
2023-01-04T02:39:21.547Z,46.57
2023-01-04T02:40:21.545Z,38.83
2023-01-04T02:41:21.541Z,39.16
2023-01-04T02:42:21.529Z,39.32
2023-01-04T02:43:21.553Z,38.83
2023-01-04T02:44:21.534Z,38.99
2023-01-04T02:45:21.511Z,39.16
2023-01-04T02:46:21.534Z,39.48
2023-01-04T02:47:21.483Z,38.99
2023-01-04T02:48:21.526Z,43.02
2023-01-04T02:49:21.480Z,41.41
2023-01-04T02:50:21.466Z,39.32
2023-01-04T02:51:21.462Z,39.16
2023-01-04T02:52:21.480Z,40.12
2023-01-04T02:53:21.493Z,39.96
2023-01-04T02:54:21.443Z,56.24
2023-01-04T02:55:21.425Z,57.36
2023-01-04T02:56:21.418Z,58.01
2023-01-04T02:57:21.416Z,58.17
2023-01-04T02:58:21.442Z,58.17
2023-01-04T02:59:21.402Z,55.59
2023-01-04T03:00:21.397Z,55.59
2023-01-04T03:01:21.494Z,55.91
2023-01-04T03:02:21.566Z,55.59
2023-01-04T03:03:21.498Z,55.59
2023-01-04T03:04:21.404Z,56.24
2023-01-04T03:05:21.365Z,55.59
2023-01-04T03:06:21.341Z,55.91
2023-01-04T03:07:21.340Z,55.75
2023-01-04T03:08:21.329Z,55.59
2023-01-04T03:09:21.352Z,55.11
2023-01-04T03:10:21.328Z,55.11
2023-01-04T03:11:21.299Z,54.79
2023-01-04T03:12:21.299Z,55.75
2023-01-04T03:13:21.284Z,55.75
2023-01-04T03:14:32.443Z,55.27
2023-01-04T03:15:22.302Z,54.79
2023-01-04T03:16:21.413Z,56.72
2023-01-04T03:17:21.257Z,56.72
2023-01-04T03:18:21.245Z,55.75
2023-01-04T03:19:21.260Z,55.91
2023-01-04T03:20:21.230Z,55.11
2023-01-04T03:21:21.225Z,43.67
2023-01-04T03:22:21.209Z,37.71
2023-01-04T03:23:21.207Z,36.74
2023-01-04T03:24:21.244Z,36.90
2023-01-04T03:25:21.193Z,37.71
2023-01-04T03:26:21.196Z,37.06
2023-01-04T03:27:21.177Z,38.83
2023-01-04T03:28:21.172Z,40.28
2023-01-04T03:29:21.188Z,39.96
2023-01-04T03:30:21.154Z,40.12
2023-01-04T03:31:21.187Z,41.57
2023-01-04T03:32:21.143Z,38.35
2023-01-04T03:33:21.134Z,40.61
2023-01-04T03:34:21.157Z,43.51
2023-01-04T03:35:21.109Z,42.06
2023-01-04T03:36:21.105Z,42.06
2023-01-04T03:37:21.103Z,41.25
2023-01-04T03:38:21.097Z,39.80
2023-01-04T03:39:21.105Z,40.61
2023-01-04T03:40:22.087Z,39.96
2023-01-04T03:41:21.082Z,39.64
2023-01-04T03:42:21.056Z,40.28
2023-01-04T03:43:21.050Z,40.77
2023-01-04T03:44:21.118Z,40.12
2023-01-04T03:45:21.049Z,40.77
2023-01-04T03:46:21.133Z,42.54
2023-01-04T03:47:21.022Z,40.12
2023-01-04T03:48:21.015Z,40.12
2023-01-04T03:49:21.045Z,42.70
2023-01-04T03:50:21.004Z,44.31
2023-01-04T03:51:20.979Z,42.54
2023-01-04T03:52:21.990Z,41.09
2023-01-04T03:53:20.989Z,42.06
2023-01-04T03:54:20.996Z,42.38
2023-01-04T03:55:20.960Z,40.77
2023-01-04T03:56:20.959Z,43.51
2023-01-04T03:57:20.957Z,41.89
2023-01-04T03:58:20.939Z,41.73
2023-01-04T03:59:20.974Z,41.73
2023-01-04T04:00:20.933Z,43.99
2023-01-04T04:01:21.125Z,43.34
2023-01-04T04:02:20.943Z,43.02
2023-01-04T04:03:20.907Z,44.15
2023-01-04T04:04:21.038Z,44.15
2023-01-04T04:05:20.903Z,43.02
2023-01-04T04:06:20.891Z,46.41
2023-01-04T04:07:20.881Z,43.67
2023-01-04T04:08:20.878Z,43.18
2023-01-04T04:09:20.881Z,41.57
2023-01-04T04:10:20.882Z,40.93
2023-01-04T04:11:20.852Z,43.83
2023-01-04T04:12:20.843Z,44.47
2023-01-04T04:13:20.829Z,43.51
2023-01-04T04:14:20.840Z,44.96
2023-01-04T04:15:20.871Z,43.67
2023-01-04T04:16:20.837Z,44.96
2023-01-04T04:17:20.799Z,47.21
2023-01-04T04:18:20.795Z,49.79
2023-01-04T04:19:20.790Z,48.18
2023-01-04T04:20:20.797Z,44.96
2023-01-04T04:21:20.768Z,43.02
2023-01-04T04:22:20.765Z,47.21
2023-01-04T04:23:20.757Z,45.28
2023-01-04T04:24:20.767Z,50.27
2023-01-04T04:25:20.774Z,45.28
2023-01-04T04:26:20.734Z,44.63
2023-01-04T04:27:20.740Z,42.06
2023-01-04T04:28:20.703Z,42.06
2023-01-04T04:29:21.705Z,43.51
2023-01-04T04:30:20.734Z,49.95
2023-01-04T04:31:20.714Z,45.60
2023-01-04T04:32:20.687Z,43.34
2023-01-04T04:33:20.686Z,48.34
2023-01-04T04:34:20.680Z,49.47
2023-01-04T04:35:20.702Z,48.66
2023-01-04T04:36:20.656Z,44.63
2023-01-04T04:37:20.653Z,44.96
2023-01-04T04:38:20.643Z,44.31
2023-01-04T04:39:20.647Z,45.92
2023-01-04T04:40:20.665Z,46.57
2023-01-04T04:41:20.635Z,45.92
2023-01-04T04:42:20.630Z,47.70
2023-01-04T04:43:20.619Z,45.12
2023-01-04T04:44:20.620Z,45.92
2023-01-04T04:45:20.655Z,42.70
2023-01-04T04:46:20.665Z,48.50
2023-01-04T04:47:20.569Z,44.63
2023-01-04T04:48:20.558Z,46.08
2023-01-04T04:49:20.547Z,47.21
2023-01-04T04:50:20.571Z,47.70
2023-01-04T04:51:20.544Z,44.96
2023-01-04T04:52:20.526Z,43.67
2023-01-04T04:53:20.523Z,48.02
2023-01-04T04:54:20.523Z,45.60
2023-01-04T04:55:20.542Z,43.34
2023-01-04T04:56:20.504Z,44.31
2023-01-04T04:57:20.504Z,45.60
2023-01-04T04:58:20.487Z,42.06
2023-01-04T04:59:20.481Z,43.83
2023-01-04T05:00:20.492Z,43.99
2023-01-04T05:01:20.636Z,43.02
2023-01-04T05:02:20.693Z,47.53
2023-01-04T05:03:20.506Z,48.02
2023-01-04T05:04:20.453Z,44.47
2023-01-04T05:05:20.467Z,44.63
2023-01-04T05:06:20.421Z,46.08
2023-01-04T05:07:20.423Z,46.57
2023-01-04T05:08:20.409Z,50.92
2023-01-04T05:09:20.396Z,46.41
2023-01-04T05:10:20.420Z,47.21
2023-01-04T05:11:20.382Z,46.57
2023-01-04T05:12:20.382Z,46.73
2023-01-04T05:13:20.370Z,46.08
2023-01-04T05:14:20.395Z,45.12
2023-01-04T05:15:20.386Z,48.66
2023-01-04T05:16:20.364Z,49.15
2023-01-04T05:17:20.337Z,47.70
2023-01-04T05:18:20.325Z,50.11
2023-01-04T05:19:20.337Z,46.08
2023-01-04T05:20:20.346Z,47.21
2023-01-04T05:21:20.629Z,43.34
2023-01-04T05:22:21.303Z,46.08
2023-01-04T05:23:20.297Z,48.34
2023-01-04T05:24:20.304Z,47.53
2023-01-04T05:25:20.595Z,49.15
2023-01-04T05:26:20.267Z,45.92
2023-01-04T05:27:20.262Z,45.44
2023-01-04T05:28:20.254Z,47.21
2023-01-04T05:29:20.240Z,46.73
2023-01-04T05:30:20.236Z,43.67
2023-01-04T05:31:20.334Z,46.25
2023-01-04T05:32:20.216Z,45.92
2023-01-04T05:33:20.219Z,43.83
2023-01-04T05:34:22.328Z,47.21
2023-01-04T05:35:21.201Z,45.44
2023-01-04T05:36:20.222Z,48.02
2023-01-04T05:37:20.217Z,46.41
2023-01-04T05:38:20.178Z,47.53
2023-01-04T05:39:20.167Z,46.08
2023-01-04T05:40:20.175Z,44.63
2023-01-04T05:41:20.186Z,48.50
2023-01-04T05:42:20.146Z,52.53
2023-01-04T05:43:20.130Z,48.02
2023-01-04T05:44:20.121Z,51.08
2023-01-04T05:45:20.120Z,51.08
2023-01-04T05:46:20.243Z,51.08
2023-01-04T05:47:20.103Z,46.89
2023-01-04T05:48:20.101Z,48.66
2023-01-04T05:49:20.088Z,49.79
2023-01-04T05:50:20.077Z,50.11
2023-01-04T05:51:20.100Z,49.31
2023-01-04T05:52:20.062Z,47.21
2023-01-04T05:53:20.102Z,46.41
2023-01-04T05:54:21.620Z,47.53
2023-01-04T05:55:21.043Z,50.11
2023-01-04T05:56:20.053Z,47.70
2023-01-04T05:57:20.049Z,48.02
2023-01-04T05:58:20.021Z,47.21
2023-01-04T05:59:20.001Z,45.60
2023-01-04T06:00:19.995Z,44.63
2023-01-04T06:01:20.050Z,47.70
2023-01-04T06:02:20.069Z,46.08
2023-01-04T06:03:20.092Z,48.02
2023-01-04T06:04:19.981Z,48.66
2023-01-04T06:05:19.974Z,43.99
2023-01-04T06:06:19.991Z,45.60
2023-01-04T06:07:19.949Z,43.67
2023-01-04T06:08:19.945Z,53.01
2023-01-04T06:09:19.939Z,44.96
2023-01-04T06:10:19.938Z,45.12
2023-01-04T06:11:25.609Z,50.60
2023-01-04T06:12:21.910Z,49.47
2023-01-04T06:13:19.892Z,47.53
2023-01-04T06:14:20.891Z,45.44
2023-01-04T06:15:19.885Z,50.27
2023-01-04T06:16:19.940Z,46.57
2023-01-04T06:17:19.876Z,46.57
2023-01-04T06:18:19.875Z,48.50
2023-01-04T06:19:19.873Z,45.12
2023-01-04T06:20:19.845Z,50.43
2023-01-04T06:21:19.871Z,42.54
2023-01-04T06:22:19.844Z,42.70
2023-01-04T06:23:19.825Z,45.28
2023-01-04T06:24:19.816Z,48.02
2023-01-04T06:25:19.815Z,49.31
2023-01-04T06:26:19.835Z,45.12
2023-01-04T06:27:19.789Z,53.82
2023-01-04T06:28:19.793Z,52.53
2023-01-04T06:29:19.779Z,47.37
2023-01-04T06:30:19.766Z,47.21
2023-01-04T06:31:19.812Z,50.11
2023-01-04T06:32:19.765Z,46.89
2023-01-04T06:33:19.752Z,43.34
2023-01-04T06:34:21.063Z,46.57
2023-01-04T06:35:19.780Z,52.21
2023-01-04T06:36:20.379Z,46.89
2023-01-04T06:37:19.721Z,50.43
2023-01-04T06:38:19.709Z,44.15
2023-01-04T06:39:19.728Z,47.05
2023-01-04T06:40:19.697Z,49.95
2023-01-04T06:41:19.719Z,45.60
2023-01-04T06:42:19.682Z,49.95
2023-01-04T06:43:19.678Z,50.27
2023-01-04T06:44:19.675Z,49.31
2023-01-04T06:45:19.670Z,52.21
2023-01-04T06:46:19.744Z,47.37
2023-01-04T06:47:19.652Z,48.66
2023-01-04T06:48:19.675Z,53.33
2023-01-04T06:49:19.661Z,46.57
2023-01-04T06:50:19.623Z,48.18
2023-01-04T06:51:19.637Z,45.60
2023-01-04T06:52:19.596Z,47.86
2023-01-04T06:53:19.596Z,50.76
2023-01-04T06:54:19.592Z,44.79
2023-01-04T06:55:19.591Z,54.14
2023-01-04T06:56:19.576Z,52.37
2023-01-04T06:57:19.594Z,45.12
2023-01-04T06:58:19.571Z,47.70
2023-01-04T06:59:19.569Z,45.76
2023-01-04T07:00:19.556Z,49.47
2023-01-04T07:01:20.597Z,53.50
2023-01-04T07:02:19.613Z,43.83
2023-01-04T07:03:19.585Z,46.73
2023-01-04T07:04:19.582Z,43.02
2023-01-04T07:05:19.505Z,47.37
2023-01-04T07:06:19.499Z,41.25
2023-01-04T07:07:19.527Z,44.15
2023-01-04T07:08:19.481Z,42.54
2023-01-04T07:09:19.477Z,47.70
2023-01-04T07:10:19.471Z,47.70
2023-01-04T07:11:19.454Z,41.73
2023-01-04T07:12:20.499Z,43.99
2023-01-04T07:13:19.458Z,52.37
2023-01-04T07:14:19.452Z,45.76
2023-01-04T07:15:39.565Z,46.73
2023-01-04T07:16:20.470Z,45.44
2023-01-04T07:17:22.555Z,43.34
2023-01-04T07:18:20.415Z,55.27
2023-01-04T07:19:19.405Z,45.60
2023-01-04T07:20:19.398Z,43.51
2023-01-04T07:21:19.398Z,48.98
2023-01-04T07:22:19.411Z,45.28
2023-01-04T07:23:19.373Z,42.54
2023-01-04T07:24:21.283Z,46.08
2023-01-04T07:25:19.360Z,44.15
2023-01-04T07:26:19.346Z,41.41
2023-01-04T07:27:19.367Z,42.38
2023-01-04T07:28:19.340Z,47.86
2023-01-04T07:29:19.367Z,49.95
2023-01-04T07:30:19.324Z,41.57
2023-01-04T07:31:19.422Z,48.02
2023-01-04T07:32:19.350Z,49.15
2023-01-04T07:33:19.312Z,48.98
2023-01-04T07:34:19.302Z,43.99
2023-01-04T07:35:19.320Z,45.44
2023-01-04T07:36:19.310Z,43.83
2023-01-04T07:37:19.299Z,46.89
2023-01-04T07:38:19.271Z,45.92
2023-01-04T07:39:19.267Z,45.12
2023-01-04T07:40:19.255Z,42.70
2023-01-04T07:41:19.240Z,46.41
2023-01-04T07:42:19.265Z,49.15
2023-01-04T07:43:24.260Z,46.41
2023-01-04T07:44:21.222Z,50.60
2023-01-04T07:45:19.214Z,45.92
2023-01-04T07:46:19.257Z,48.34
2023-01-04T07:47:19.211Z,46.73
2023-01-04T07:48:19.178Z,46.08
2023-01-04T07:49:19.172Z,46.89
2023-01-04T07:50:19.171Z,46.08
2023-01-04T07:51:19.208Z,45.60
2023-01-04T07:52:19.190Z,45.60
2023-01-04T07:53:19.152Z,43.02
2023-01-04T07:54:19.146Z,47.70
2023-01-04T07:55:19.312Z,44.63
2023-01-04T07:56:19.232Z,41.73
2023-01-04T07:57:19.552Z,45.12
2023-01-04T07:58:19.107Z,41.89
2023-01-04T07:59:19.105Z,43.02
2023-01-04T08:00:19.083Z,45.12
2023-01-04T08:01:19.286Z,47.70
2023-01-04T08:02:19.246Z,45.28
2023-01-04T08:03:19.064Z,48.98
2023-01-04T08:04:19.079Z,45.28
2023-01-04T08:05:19.133Z,46.41
2023-01-04T08:06:19.063Z,43.99
2023-01-04T08:07:20.057Z,43.02
2023-01-04T08:08:19.028Z,42.06
2023-01-04T08:09:19.054Z,43.02
2023-01-04T08:10:19.024Z,46.89
2023-01-04T08:11:19.011Z,50.76
2023-01-04T08:12:19.035Z,46.73
2023-01-04T08:13:18.994Z,46.08
2023-01-04T08:14:18.985Z,45.60
2023-01-04T08:15:18.976Z,43.83
2023-01-04T08:16:19.055Z,43.02
2023-01-04T08:17:18.987Z,51.88
2023-01-04T08:18:20.609Z,43.67
2023-01-04T08:19:19.947Z,43.99
2023-01-04T08:20:18.933Z,42.38
2023-01-04T08:21:18.942Z,48.02
2023-01-04T08:22:18.987Z,49.31
2023-01-04T08:23:18.919Z,44.63
2023-01-04T08:24:18.894Z,43.67
2023-01-04T08:25:18.898Z,49.79
2023-01-04T08:26:18.885Z,47.86
2023-01-04T08:27:18.926Z,47.37
2023-01-04T08:28:18.875Z,48.02
2023-01-04T08:29:18.865Z,43.83
2023-01-04T08:30:18.863Z,44.96
2023-01-04T08:31:18.985Z,46.57
2023-01-04T08:32:18.874Z,46.08
2023-01-04T08:33:18.854Z,48.18
2023-01-04T08:34:18.833Z,48.98
2023-01-04T08:35:18.837Z,41.57
2023-01-04T08:36:26.003Z,43.02
2023-01-04T08:37:20.823Z,45.44
2023-01-04T08:38:58.311Z,50.11
2023-01-04T08:39:20.785Z,42.70
2023-01-04T08:40:18.786Z,46.89
2023-01-04T08:41:47.076Z,42.54
2023-01-04T08:42:28.655Z,46.25
2023-01-04T08:43:20.759Z,48.98
2023-01-04T08:44:18.794Z,48.18
2023-01-04T08:45:18.753Z,48.50
2023-01-04T08:46:18.841Z,47.21
2023-01-04T08:47:18.775Z,47.37
2023-01-04T08:48:24.429Z,46.41
2023-01-04T08:49:20.708Z,43.18
2023-01-04T08:50:19.708Z,47.21
2023-01-04T08:51:18.695Z,49.95
2023-01-04T08:52:18.723Z,41.89
2023-01-04T08:53:18.679Z,45.44
2023-01-04T08:54:18.695Z,43.99
2023-01-04T08:55:23.097Z,45.60
2023-01-04T08:56:19.657Z,47.21
2023-01-04T08:57:18.654Z,45.92
2023-01-04T08:58:18.670Z,43.02
2023-01-04T08:59:18.672Z,45.28
2023-01-04T09:00:18.640Z,44.31
2023-01-04T09:01:18.723Z,45.92
2023-01-04T09:02:18.763Z,47.70
2023-01-04T09:03:18.702Z,45.28
2023-01-04T09:04:18.651Z,43.83
2023-01-04T09:05:22.941Z,44.47
2023-01-04T09:06:18.608Z,46.89
2023-01-04T09:07:18.609Z,49.31
2023-01-04T09:08:18.601Z,49.31
2023-01-04T09:09:18.564Z,50.76
2023-01-04T09:10:18.578Z,42.54
2023-01-04T09:11:18.564Z,45.76
2023-01-04T09:12:19.542Z,49.63
2023-01-04T09:13:18.560Z,44.96
2023-01-04T09:14:18.530Z,50.27
2023-01-04T09:15:18.540Z,46.89
2023-01-04T09:16:18.547Z,45.60
2023-01-04T09:17:18.498Z,44.63
2023-01-04T09:18:31.133Z,46.08
2023-01-04T09:19:22.421Z,44.47
2023-01-04T09:20:19.474Z,48.18
2023-01-04T09:21:18.481Z,42.86
2023-01-04T09:22:18.556Z,43.02
2023-01-04T09:23:18.496Z,46.25
2023-01-04T09:24:18.448Z,49.47
2023-01-04T09:25:18.455Z,47.21
2023-01-04T09:26:18.432Z,44.63
2023-01-04T09:27:18.424Z,48.34
2023-01-04T09:28:18.447Z,47.05
2023-01-04T09:29:18.420Z,49.63
2023-01-04T09:30:18.403Z,50.11
2023-01-04T09:31:18.467Z,47.37
2023-01-04T09:32:18.430Z,49.95
2023-01-04T09:33:18.395Z,56.24
2023-01-04T09:34:18.561Z,57.04
2023-01-04T09:35:18.377Z,57.04
2023-01-04T09:36:18.438Z,57.85
2023-01-04T09:37:18.351Z,57.52
2023-01-04T09:38:18.345Z,57.69
2023-01-04T09:39:23.059Z,57.85
2023-01-04T09:40:20.333Z,57.36
2023-01-04T09:41:18.324Z,57.36
2023-01-04T09:42:18.312Z,56.40
2023-01-04T09:43:19.930Z,57.52
2023-01-04T09:44:18.333Z,56.07
2023-01-04T09:45:25.878Z,56.24
2023-01-04T09:46:20.317Z,57.36
2023-01-04T09:47:18.283Z,56.56
2023-01-04T09:48:24.990Z,56.72
2023-01-04T09:49:20.290Z,56.40
2023-01-04T09:50:18.520Z,56.40
2023-01-04T09:51:18.311Z,56.56
2023-01-04T09:52:18.237Z,56.88
2023-01-04T09:53:18.238Z,56.40
2023-01-04T09:54:18.259Z,56.88
2023-01-04T09:55:37.664Z,56.24
2023-01-04T09:56:19.210Z,56.24
2023-01-04T09:57:18.243Z,50.76
2023-01-04T09:58:18.195Z,49.31
2023-01-04T09:59:18.211Z,46.89
2023-01-04T10:00:18.181Z,53.01
2023-01-04T10:01:18.295Z,44.63
2023-01-04T10:02:18.312Z,46.89
2023-01-04T10:03:18.288Z,51.08
2023-01-04T10:04:18.147Z,48.02
2023-01-04T10:05:18.165Z,47.70
2023-01-04T10:06:18.125Z,46.41
2023-01-04T10:07:18.109Z,46.08
2023-01-04T10:08:18.116Z,45.44
2023-01-04T10:09:18.100Z,51.08
2023-01-04T10:10:18.140Z,50.43
2023-01-04T10:11:18.091Z,48.02
2023-01-04T10:12:18.088Z,49.63
2023-01-04T10:13:18.087Z,48.02
2023-01-04T10:14:18.068Z,48.82
2023-01-04T10:15:18.086Z,46.57
2023-01-04T10:16:30.443Z,47.05
2023-01-04T10:17:35.427Z,50.60
2023-01-04T10:20:59.591Z,49.79
2023-01-04T10:21:32.221Z,49.79
2023-01-04T10:22:20.014Z,48.02
2023-01-04T10:23:17.990Z,49.47
2023-01-04T10:24:19.022Z,50.76
2023-01-04T10:25:18.000Z,47.21
2023-01-04T10:26:18.016Z,46.08
2023-01-04T10:27:17.987Z,46.41
2023-01-04T10:28:17.970Z,53.01
2023-01-04T10:29:17.958Z,50.11
2023-01-04T10:30:18.014Z,48.82
2023-01-04T10:31:40.605Z,46.41
2023-01-04T10:32:18.973Z,44.31
2023-01-04T10:33:17.919Z,51.72
2023-01-04T10:34:19.118Z,45.92
2023-01-04T10:35:18.938Z,53.50
2023-01-04T10:36:17.899Z,47.21
2023-01-04T10:37:17.889Z,47.37
2023-01-04T10:38:17.904Z,45.60
2023-01-04T10:39:17.871Z,47.21
2023-01-04T10:40:18.005Z,46.73
2023-01-04T10:41:17.864Z,49.31
2023-01-04T10:42:17.883Z,49.15
2023-01-04T10:43:17.846Z,48.98
2023-01-04T10:44:17.838Z,46.08
2023-01-04T10:45:17.866Z,50.11
2023-01-04T10:46:17.853Z,47.86
2023-01-04T10:47:17.972Z,48.50
2023-01-04T10:48:17.801Z,50.27
2023-01-04T10:49:17.804Z,49.95
2023-01-04T10:50:17.872Z,50.76
2023-01-04T10:51:17.787Z,50.43
2023-01-04T10:52:17.780Z,49.63
2023-01-04T10:53:17.785Z,47.70
2023-01-04T10:54:17.755Z,52.05
2023-01-04T10:55:17.799Z,47.86
2023-01-04T10:56:25.841Z,50.60
2023-01-04T10:57:18.740Z,43.51
2023-01-04T10:58:17.738Z,45.60
2023-01-04T10:59:17.737Z,49.63
2023-01-04T11:00:17.757Z,53.01
2023-01-04T11:01:17.949Z,44.79
2023-01-04T11:02:17.856Z,47.70
2023-01-04T11:03:17.854Z,48.66
2023-01-04T11:04:17.690Z,47.86
2023-01-04T11:05:17.708Z,50.27
2023-01-04T11:06:17.686Z,49.31
2023-01-04T11:07:17.668Z,48.34
2023-01-04T11:08:17.678Z,49.95
2023-01-04T11:09:22.974Z,50.60
2023-01-04T11:10:19.671Z,51.40
2023-01-04T11:11:17.648Z,45.12
2023-01-04T11:12:17.645Z,50.43
2023-01-04T11:13:17.640Z,47.37
2023-01-04T11:14:17.631Z,49.47
2023-01-04T11:15:17.629Z,50.92
2023-01-04T11:16:17.660Z,50.60
2023-01-04T11:17:17.599Z,47.53
2023-01-04T11:18:17.598Z,48.18
2023-01-04T11:19:17.584Z,46.73
2023-01-04T11:20:17.590Z,50.60
2023-01-04T11:21:17.575Z,47.05
2023-01-04T11:22:17.641Z,52.69
2023-01-04T11:23:17.659Z,51.24
2023-01-04T11:24:33.728Z,48.50
2023-01-04T11:25:36.245Z,50.60
2023-01-04T11:26:19.551Z,48.82
2023-01-04T11:27:20.933Z,44.96
2023-01-04T11:28:18.524Z,48.34
2023-01-04T11:29:17.516Z,43.83
2023-01-04T11:30:17.544Z,51.40
2023-01-04T11:31:17.573Z,45.76
2023-01-04T11:32:17.562Z,47.53
2023-01-04T11:33:17.500Z,48.82
2023-01-04T11:34:17.502Z,47.86
2023-01-04T11:35:17.502Z,46.57
2023-01-04T11:36:17.458Z,45.76
2023-01-04T11:37:17.456Z,49.31
2023-01-04T11:38:17.509Z,46.57
2023-01-04T11:39:17.453Z,51.72
2023-01-04T11:40:17.502Z,48.82
2023-01-04T11:41:17.439Z,51.72
2023-01-04T11:42:17.423Z,46.25
2023-01-04T11:43:17.420Z,48.34
2023-01-04T11:44:17.418Z,44.63
2023-01-04T11:45:17.424Z,49.95
2023-01-04T11:46:17.438Z,51.72
2023-01-04T11:47:17.386Z,48.34
2023-01-04T11:48:17.387Z,54.30
2023-01-04T11:49:17.379Z,50.11
2023-01-04T11:50:17.389Z,44.63
2023-01-04T11:51:17.437Z,47.37
2023-01-04T11:52:17.347Z,50.92
2023-01-04T11:53:17.336Z,51.40
2023-01-04T11:54:17.316Z,51.72
2023-01-04T11:55:17.332Z,48.02
2023-01-04T11:56:17.342Z,45.44
2023-01-04T11:57:17.295Z,46.73
2023-01-04T11:58:17.284Z,47.86
2023-01-04T11:59:24.728Z,49.15
2023-01-04T12:00:19.303Z,47.37
2023-01-04T12:01:17.307Z,46.25
2023-01-04T12:02:42.260Z,52.05
2023-01-04T12:03:19.324Z,49.15
2023-01-04T12:04:17.268Z,47.21
2023-01-04T12:05:21.151Z,46.41
2023-01-04T12:06:18.284Z,50.92
2023-01-04T12:07:17.243Z,51.40
2023-01-04T12:08:17.218Z,48.02
2023-01-04T12:09:17.231Z,49.79
2023-01-04T12:10:17.217Z,49.79
2023-01-04T12:11:17.227Z,51.40
2023-01-04T12:12:17.242Z,50.76
2023-01-04T12:13:17.218Z,49.79
2023-01-04T12:14:17.194Z,49.15
2023-01-04T12:15:17.192Z,50.27
2023-01-04T12:16:17.247Z,54.14
2023-01-04T12:17:17.165Z,53.01
2023-01-04T12:18:17.176Z,51.24
2023-01-04T12:19:17.150Z,45.60
2023-01-04T12:20:19.700Z,47.53
2023-01-04T12:21:18.162Z,45.92
2023-01-04T12:22:17.143Z,52.53
2023-01-04T12:23:17.127Z,52.37
2023-01-04T12:24:17.113Z,48.66
2023-01-04T12:25:17.096Z,46.89
2023-01-04T12:26:17.130Z,51.88
2023-01-04T12:27:17.072Z,52.85
2023-01-04T12:28:22.759Z,46.73
2023-01-04T12:29:18.052Z,47.05
2023-01-04T12:30:17.138Z,47.05
2023-01-04T12:31:19.405Z,48.98
2023-01-04T12:32:17.062Z,51.56
2023-01-04T12:33:17.051Z,53.66
2023-01-04T12:34:17.042Z,47.37
2023-01-04T12:35:17.017Z,48.66
2023-01-04T12:36:17.065Z,52.53
2023-01-04T12:37:17.026Z,45.12
2023-01-04T12:38:17.008Z,51.24
2023-01-04T12:39:17.013Z,47.21
2023-01-04T12:40:16.975Z,47.05
2023-01-04T12:41:16.980Z,49.15
2023-01-04T12:42:16.998Z,50.43
2023-01-04T12:43:16.989Z,47.70
2023-01-04T12:44:16.972Z,46.08
2023-01-04T12:45:16.952Z,54.30
2023-01-04T12:46:16.995Z,48.98
2023-01-04T12:47:16.955Z,44.15
2023-01-04T12:48:16.942Z,44.63
2023-01-04T12:49:16.920Z,49.63
2023-01-04T12:50:16.897Z,46.25
2023-01-04T12:51:30.981Z,51.08
2023-01-04T12:52:48.024Z,45.28
2023-01-04T12:53:30.063Z,51.56
2023-01-04T12:54:18.875Z,51.24